Elephant Butte, NM

9:37 PM MDT on September 23, 2014 (GMT -0600)
Truth Or Consequences Municipal | Change Station
CLOSE
Current Station
Airport
Location: Truth Or Consequences,
Elevation: 4859 ft
Nearby Weather Stations

Elev 4859 ft 33.24 °N, 107.27 °W | Updated 44 minutes ago

Partly Cloudy
Partly Cloudy
72 °F
Feels Like 72 °F
N
5
Wind Variable Wind from West

Today
High -- | Low -- °F
--% Chance of Precip.
Yesterday
High -- | Low -- °F
Precip. -- in
6:57 AM 7:04 PM
Waning Crescent, 0% visible
Pressure 29.95 in
Visibility 10.0 miles
Clouds Clear
Dew Point 63 °F
Humidity 73%
Rainfall 2.33 in
Snow Depth 0 in , 0 in , 0 in
UV 0 out of 12
Pollen 6.00 out of 12
Air Quality Not available.
Flu Activity Not available.
METAR KTCS 240253Z AUTO 26004KT 10SM CLR 22/17 A3016 RMK AO2 SLP140 T02220172 53008 TSNO

More Conditions Fewer Conditions

Pressure 29.95 in
Visibility 10.0 miles
Clouds Clear
Dew Point 63 °F
Humidity 73%
Rainfall 2.33 in
Snow Depth 0 in , 0 in , 0 in
UV 0 out of 12
Pollen 6.00 out of 12
Air Quality Not available.
Flu Activity Not available.
METAR KTCS 240253Z AUTO 26004KT 10SM CLR 22/17 A3016 RMK AO2 SLP140 T02220172 53008 TSNO

More Conditions Fewer Conditions

10-Day Weather Forecast

Almanac

Astronomy

Sep. 23, 2014 Rise Set
Actual Time 6:57 AM MDT 7:04 PM MDT
Civil Twilight 6:33 AM MDT 7:29 PM MDT
Nautical Twilight 6:04 AM MDT 7:57 PM MDT
Astronomical Twilight 5:35 AM MDT 8:26 PM MDT
Moon 6:25 AM MDT (9/23) 6:45 PM MDT (9/23)
Length of Visible Light 12h 55m
Length of Day
12h 06m
Tomorrow will be 2m 3s shorter.
Waning Crescent, 0% of the Moon is Illuminated
Today
Waning Crescent
Sep 24
New
Oct 1
First Quarter
Oct 8
Full
Oct 15
Last Quarter

Today's Extremes

State Highs State Lows

Community

WunderPhotos

Upload Photos

1,755,877 photos uploaded!

WunderBlogs® & News

Nearby

Snow Depth

Station Depth Elevation
Santa Fe 0 in 11445 ft
Chamita 0 in 8400 ft
Hopewell 0 in 10000 ft
Wesner Springs 3 in 11120 ft
Signal Peak 1 in 8360 ft

Earthquake Activity

City Distance Mag. Time & Date
No recent earthquake activity has been reported nearby.
Minimum magnitude displayed is 2.5.

Coastal Water Temperatures

Place Temperature
No Stations Reporting

Nearby Weather Stations